sensor_id;sensor_type;location;lat;lon;timestamp;P1;durP1;ratioP1;P2;durP2;ratioP2
80348;SDS011;69662;52.676;13.612;2023-04-24T17:19:57;31.65;;;13.85;;
80348;SDS011;69662;52.676;13.612;2023-04-24T17:22:22;24.95;;;13.45;;
80348;SDS011;69662;52.676;13.612;2023-04-24T17:24:47;21.13;;;12.23;;
80348;SDS011;69662;52.676;13.612;2023-04-24T17:27:13;32.13;;;12.07;;
80348;SDS011;69662;52.676;13.612;2023-04-24T17:29:38;22.77;;;11.27;;
80348;SDS011;69662;52.676;13.612;2023-04-24T17:32:04;24.60;;;10.68;;
80348;SDS011;69662;52.676;13.612;2023-04-24T17:34:29;24.03;;;10.17;;
80348;SDS011;69662;52.676;13.612;2023-04-24T17:36:55;15.98;;;8.90;;
80348;SDS011;69662;52.676;13.612;2023-04-24T17:39:20;17.08;;;8.82;;
80348;SDS011;69662;52.676;13.612;2023-04-24T17:41:46;21.80;;;9.07;;
80348;SDS011;69662;52.676;13.612;2023-04-24T17:44:11;21.67;;;10.10;;
80348;SDS011;69662;52.676;13.612;2023-04-24T17:46:36;15.57;;;7.93;;
80348;SDS011;69662;52.676;13.612;2023-04-24T17:49:01;14.70;;;9.17;;
80348;SDS011;69662;52.676;13.612;2023-04-24T17:51:27;20.52;;;8.77;;
80348;SDS011;69662;52.676;13.612;2023-04-24T17:53:53;18.13;;;8.88;;
80348;SDS011;69662;52.676;13.612;2023-04-24T17:56:18;20.98;;;8.07;;
80348;SDS011;69662;52.676;13.612;2023-04-24T17:58:43;17.85;;;8.60;;
80348;SDS011;69662;52.676;13.612;2023-04-24T18:01:09;16.95;;;7.93;;
80348;SDS011;69662;52.676;13.612;2023-04-24T18:03:35;21.93;;;8.97;;
80348;SDS011;69662;52.676;13.612;2023-04-24T18:06:00;20.15;;;8.52;;
80348;SDS011;69662;52.676;13.612;2023-04-24T18:08:26;15.07;;;7.57;;
80348;SDS011;69662;52.676;13.612;2023-04-24T18:10:51;16.10;;;8.15;;
80348;SDS011;69662;52.676;13.612;2023-04-24T18:13:16;14.88;;;7.25;;
80348;SDS011;69662;52.676;13.612;2023-04-24T18:15:42;15.20;;;6.97;;
80348;SDS011;69662;52.676;13.612;2023-04-24T18:18:10;14.90;;;8.17;;
80348;SDS011;69662;52.676;13.612;2023-04-24T18:20:36;16.70;;;7.63;;
80348;SDS011;69662;52.676;13.612;2023-04-24T18:23:03;16.27;;;7.53;;
80348;SDS011;69662;52.676;13.612;2023-04-24T18:25:28;13.85;;;6.63;;
80348;SDS011;69662;52.676;13.612;2023-04-24T18:27:54;13.18;;;5.68;;
80348;SDS011;69662;52.676;13.612;2023-04-24T18:30:20;14.63;;;6.23;;
80348;SDS011;69662;52.676;13.612;2023-04-24T18:32:49;11.15;;;6.18;;
80348;SDS011;69662;52.676;13.612;2023-04-24T18:35:16;12.63;;;6.53;;
80348;SDS011;69662;52.676;13.612;2023-04-24T18:37:43;9.70;;;5.93;;
80348;SDS011;69662;52.676;13.612;2023-04-24T18:40:09;12.68;;;5.85;;
80348;SDS011;69662;52.676;13.612;2023-04-24T18:42:35;13.77;;;6.50;;
80348;SDS011;69662;52.676;13.612;2023-04-24T18:45:00;19.13;;;6.32;;
80348;SDS011;69662;52.676;13.612;2023-04-24T18:47:26;10.55;;;5.93;;
80348;SDS011;69662;52.676;13.612;2023-04-24T18:49:52;11.18;;;5.43;;
80348;SDS011;69662;52.676;13.612;2023-04-24T18:52:18;11.30;;;5.60;;
80348;SDS011;69662;52.676;13.612;2023-04-24T18:54:43;8.40;;;4.82;;
80348;SDS011;69662;52.676;13.612;2023-04-24T18:57:09;8.60;;;4.50;;
80348;SDS011;69662;52.676;13.612;2023-04-24T18:59:34;7.68;;;4.70;;
80348;SDS011;69662;52.676;13.612;2023-04-24T19:01:59;9.07;;;4.77;;
80348;SDS011;69662;52.676;13.612;2023-04-24T19:04:25;9.93;;;4.50;;
80348;SDS011;69662;52.676;13.612;2023-04-24T19:06:50;8.07;;;4.30;;
80348;SDS011;69662;52.676;13.612;2023-04-24T19:09:15;9.73;;;4.37;;
80348;SDS011;69662;52.676;13.612;2023-04-24T19:11:40;6.90;;;3.90;;
80348;SDS011;69662;52.676;13.612;2023-04-24T19:14:06;8.75;;;4.32;;
80348;SDS011;69662;52.676;13.612;2023-04-24T19:16:31;7.78;;;4.13;;
80348;SDS011;69662;52.676;13.612;2023-04-24T19:18:56;8.43;;;4.05;;
80348;SDS011;69662;52.676;13.612;2023-04-24T19:21:22;8.87;;;3.90;;
80348;SDS011;69662;52.676;13.612;2023-04-24T19:23:47;7.55;;;3.90;;
80348;SDS011;69662;52.676;13.612;2023-04-24T19:26:14;8.27;;;3.90;;
80348;SDS011;69662;52.676;13.612;2023-04-24T19:28:40;5.90;;;3.35;;
80348;SDS011;69662;52.676;13.612;2023-04-24T19:31:06;7.18;;;3.50;;
80348;SDS011;69662;52.676;13.612;2023-04-24T19:33:31;5.77;;;3.33;;
80348;SDS011;69662;52.676;13.612;2023-04-24T19:35:56;6.80;;;3.60;;
80348;SDS011;69662;52.676;13.612;2023-04-24T19:38:21;7.05;;;4.10;;
80348;SDS011;69662;52.676;13.612;2023-04-24T19:40:47;10.70;;;4.18;;
80348;SDS011;69662;52.676;13.612;2023-04-24T19:43:12;4.53;;;2.83;;
80348;SDS011;69662;52.676;13.612;2023-04-24T19:45:37;9.00;;;3.73;;
80348;SDS011;69662;52.676;13.612;2023-04-24T19:48:03;6.87;;;3.70;;
80348;SDS011;69662;52.676;13.612;2023-04-24T19:50:29;7.82;;;3.78;;
80348;SDS011;69662;52.676;13.612;2023-04-24T19:52:55;5.85;;;3.08;;
80348;SDS011;69662;52.676;13.612;2023-04-24T19:55:21;5.85;;;3.33;;
80348;SDS011;69662;52.676;13.612;2023-04-24T19:57:46;8.60;;;3.20;;
80348;SDS011;69662;52.676;13.612;2023-04-24T20:00:11;7.30;;;2.80;;
80348;SDS011;69662;52.676;13.612;2023-04-24T20:02:37;6.78;;;2.97;;
80348;SDS011;69662;52.676;13.612;2023-04-24T20:05:03;6.57;;;3.10;;
80348;SDS011;69662;52.676;13.612;2023-04-24T20:07:28;7.03;;;3.38;;
80348;SDS011;69662;52.676;13.612;2023-04-24T20:09:54;4.95;;;2.63;;
80348;SDS011;69662;52.676;13.612;2023-04-24T20:12:19;6.40;;;3.40;;
80348;SDS011;69662;52.676;13.612;2023-04-24T20:14:48;5.07;;;3.08;;
80348;SDS011;69662;52.676;13.612;2023-04-24T20:17:14;7.25;;;3.03;;
80348;SDS011;69662;52.676;13.612;2023-04-24T20:19:40;6.10;;;3.08;;
80348;SDS011;69662;52.676;13.612;2023-04-24T20:22:06;6.10;;;3.03;;
80348;SDS011;69662;52.676;13.612;2023-04-24T20:24:32;4.90;;;2.60;;
80348;SDS011;69662;52.676;13.612;2023-04-24T20:26:57;7.32;;;3.03;;
80348;SDS011;69662;52.676;13.612;2023-04-24T20:29:23;5.70;;;2.90;;
80348;SDS011;69662;52.676;13.612;2023-04-24T20:31:48;4.70;;;2.87;;
80348;SDS011;69662;52.676;13.612;2023-04-24T20:34:13;3.60;;;2.50;;
80348;SDS011;69662;52.676;13.612;2023-04-24T20:36:39;6.03;;;3.25;;
80348;SDS011;69662;52.676;13.612;2023-04-24T20:39:05;4.40;;;2.88;;
80348;SDS011;69662;52.676;13.612;2023-04-24T20:41:32;6.13;;;2.90;;
80348;SDS011;69662;52.676;13.612;2023-04-24T20:43:57;4.32;;;2.70;;
80348;SDS011;69662;52.676;13.612;2023-04-24T20:46:23;3.87;;;2.60;;
80348;SDS011;69662;52.676;13.612;2023-04-24T20:48:48;3.83;;;2.80;;
80348;SDS011;69662;52.676;13.612;2023-04-24T20:51:14;5.78;;;3.35;;
80348;SDS011;69662;52.676;13.612;2023-04-24T20:53:39;4.67;;;3.07;;
80348;SDS011;69662;52.676;13.612;2023-04-24T20:56:04;6.93;;;2.70;;
80348;SDS011;69662;52.676;13.612;2023-04-24T20:58:30;4.75;;;2.42;;
80348;SDS011;69662;52.676;13.612;2023-04-24T21:00:56;5.22;;;2.63;;
80348;SDS011;69662;52.676;13.612;2023-04-24T21:03:21;5.60;;;2.60;;
80348;SDS011;69662;52.676;13.612;2023-04-24T21:05:46;4.00;;;2.63;;
80348;SDS011;69662;52.676;13.612;2023-04-24T21:08:12;4.45;;;2.45;;
80348;SDS011;69662;52.676;13.612;2023-04-24T21:10:37;4.80;;;2.60;;
80348;SDS011;69662;52.676;13.612;2023-04-24T21:13:02;3.27;;;2.53;;
80348;SDS011;69662;52.676;13.612;2023-04-24T21:15:28;3.97;;;2.33;;
80348;SDS011;69662;52.676;13.612;2023-04-24T21:17:54;2.78;;;2.20;;
80348;SDS011;69662;52.676;13.612;2023-04-24T21:20:20;4.78;;;2.85;;
80348;SDS011;69662;52.676;13.612;2023-04-24T21:22:45;3.10;;;2.40;;
80348;SDS011;69662;52.676;13.612;2023-04-24T21:25:10;4.27;;;2.30;;
80348;SDS011;69662;52.676;13.612;2023-04-24T21:27:36;3.57;;;2.30;;
80348;SDS011;69662;52.676;13.612;2023-04-24T21:30:05;5.13;;;2.30;;
80348;SDS011;69662;52.676;13.612;2023-04-24T21:32:30;4.18;;;2.33;;
80348;SDS011;69662;52.676;13.612;2023-04-24T21:34:56;2.92;;;2.35;;
80348;SDS011;69662;52.676;13.612;2023-04-24T21:37:23;4.10;;;2.22;;
80348;SDS011;69662;52.676;13.612;2023-04-24T21:39:49;4.00;;;2.53;;
80348;SDS011;69662;52.676;13.612;2023-04-24T21:42:14;4.97;;;2.30;;
80348;SDS011;69662;52.676;13.612;2023-04-24T21:44:39;2.63;;;2.13;;
80348;SDS011;69662;52.676;13.612;2023-04-24T21:47:05;4.22;;;2.50;;
80348;SDS011;69662;52.676;13.612;2023-04-24T21:49:30;2.50;;;2.30;;
80348;SDS011;69662;52.676;13.612;2023-04-24T21:51:55;3.10;;;2.40;;
80348;SDS011;69662;52.676;13.612;2023-04-24T21:54:20;3.20;;;2.00;;
80348;SDS011;69662;52.676;13.612;2023-04-24T21:56:46;3.83;;;2.30;;
80348;SDS011;69662;52.676;13.612;2023-04-24T21:59:11;3.70;;;2.30;;
80348;SDS011;69662;52.676;13.612;2023-04-24T22:01:37;5.38;;;2.55;;
80348;SDS011;69662;52.676;13.612;2023-04-24T22:04:02;5.00;;;2.27;;
80348;SDS011;69662;52.676;13.612;2023-04-24T22:06:28;2.92;;;1.98;;
80348;SDS011;69662;52.676;13.612;2023-04-24T22:08:54;4.05;;;2.10;;
80348;SDS011;69662;52.676;13.612;2023-04-24T22:11:20;3.22;;;2.28;;
80348;SDS011;69662;52.676;13.612;2023-04-24T22:13:45;3.13;;;1.95;;
80348;SDS011;69662;52.676;13.612;2023-04-24T22:16:11;3.25;;;2.10;;
80348;SDS011;69662;52.676;13.612;2023-04-24T22:18:36;5.07;;;2.13;;
80348;SDS011;69662;52.676;13.612;2023-04-24T22:21:02;3.22;;;1.95;;
80348;SDS011;69662;52.676;13.612;2023-04-24T22:23:28;3.80;;;2.00;;
80348;SDS011;69662;52.676;13.612;2023-04-24T22:25:53;2.37;;;1.80;;
80348;SDS011;69662;52.676;13.612;2023-04-24T22:28:18;2.53;;;2.27;;
80348;SDS011;69662;52.676;13.612;2023-04-24T22:30:43;2.67;;;2.07;;
80348;SDS011;69662;52.676;13.612;2023-04-24T22:33:09;2.58;;;1.90;;
80348;SDS011;69662;52.676;13.612;2023-04-24T22:35:34;2.97;;;1.88;;
80348;SDS011;69662;52.676;13.612;2023-04-24T22:38:01;2.70;;;1.88;;
80348;SDS011;69662;52.676;13.612;2023-04-24T22:40:27;2.53;;;2.33;;
80348;SDS011;69662;52.676;13.612;2023-04-24T22:42:53;3.25;;;2.10;;
80348;SDS011;69662;52.676;13.612;2023-04-24T22:45:18;2.53;;;1.83;;
80348;SDS011;69662;52.676;13.612;2023-04-24T22:47:47;2.47;;;2.10;;
80348;SDS011;69662;52.676;13.612;2023-04-24T22:50:12;3.65;;;2.28;;
80348;SDS011;69662;52.676;13.612;2023-04-24T22:52:38;3.37;;;2.10;;
80348;SDS011;69662;52.676;13.612;2023-04-24T22:55:05;3.75;;;1.90;;
80348;SDS011;69662;52.676;13.612;2023-04-24T22:57:30;4.35;;;2.13;;
80348;SDS011;69662;52.676;13.612;2023-04-24T22:59:56;3.28;;;2.00;;
80348;SDS011;69662;52.676;13.612;2023-04-24T23:02:21;1.97;;;1.77;;
80348;SDS011;69662;52.676;13.612;2023-04-24T23:04:47;3.22;;;2.25;;
80348;SDS011;69662;52.676;13.612;2023-04-24T23:07:12;3.63;;;2.00;;
80348;SDS011;69662;52.676;13.612;2023-04-24T23:09:38;2.72;;;2.08;;
80348;SDS011;69662;52.676;13.612;2023-04-24T23:12:04;2.08;;;1.63;;
80348;SDS011;69662;52.676;13.612;2023-04-24T23:14:29;2.58;;;1.83;;
80348;SDS011;69662;52.676;13.612;2023-04-24T23:16:55;2.35;;;1.83;;
80348;SDS011;69662;52.676;13.612;2023-04-24T23:19:21;2.22;;;1.88;;
80348;SDS011;69662;52.676;13.612;2023-04-24T23:21:46;5.37;;;1.80;;
80348;SDS011;69662;52.676;13.612;2023-04-24T23:24:11;2.60;;;1.77;;
80348;SDS011;69662;52.676;13.612;2023-04-24T23:26:38;2.40;;;2.08;;
80348;SDS011;69662;52.676;13.612;2023-04-24T23:29:03;2.03;;;1.67;;
80348;SDS011;69662;52.676;13.612;2023-04-24T23:31:28;2.20;;;2.00;;
80348;SDS011;69662;52.676;13.612;2023-04-24T23:33:53;2.30;;;1.67;;
80348;SDS011;69662;52.676;13.612;2023-04-24T23:36:19;3.70;;;2.00;;
80348;SDS011;69662;52.676;13.612;2023-04-24T23:38:44;2.42;;;2.17;;
80348;SDS011;69662;52.676;13.612;2023-04-24T23:41:10;2.75;;;2.00;;
80348;SDS011;69662;52.676;13.612;2023-04-24T23:43:35;2.22;;;1.83;;
80348;SDS011;69662;52.676;13.612;2023-04-24T23:46:01;2.80;;;2.03;;
80348;SDS011;69662;52.676;13.612;2023-04-24T23:48:27;2.22;;;2.03;;
80348;SDS011;69662;52.676;13.612;2023-04-24T23:50:52;2.23;;;1.90;;
80348;SDS011;69662;52.676;13.612;2023-04-24T23:53:17;2.30;;;1.92;;
80348;SDS011;69662;52.676;13.612;2023-04-24T23:55:43;2.50;;;1.88;;
80348;SDS011;69662;52.676;13.612;2023-04-24T23:58:08;2.33;;;1.73;;
